createdAt,value
2023-01-17T00:00:34.862Z,94461.47
2023-01-17T00:02:37.772Z,94463.84
2023-01-17T00:04:59.159Z,94458.34
2023-01-17T00:07:19.654Z,94456.13
2023-01-17T00:09:39.789Z,94474.72
2023-01-17T00:11:42.868Z,94485.53
2023-01-17T00:13:45.693Z,94476.47
2023-01-17T00:15:48.428Z,94492.13
2023-01-17T00:17:54.294Z,94487.06
2023-01-17T00:20:18.654Z,94481.81
2023-01-17T00:22:42.386Z,94487.44
2023-01-17T00:25:02.535Z,94490.47
2023-01-17T00:27:13.371Z,94497.53
2023-01-17T00:29:14.853Z,94498.75
2023-01-17T00:31:16.835Z,94501.34
2023-01-17T00:33:18.782Z,94503.84
2023-01-17T00:35:22.644Z,94501.63
2023-01-17T00:37:24.158Z,94502.97
2023-01-17T00:39:25.674Z,94496.75
2023-01-17T00:41:28.852Z,94502.03
2023-01-17T00:43:50.302Z,94497.13
2023-01-17T00:46:11.261Z,94499.59
2023-01-17T00:48:31.529Z,94501.16
2023-01-17T00:50:55.637Z,94511.13
2023-01-17T00:53:15.561Z,94510.00
2023-01-17T00:55:35.669Z,94502.94
2023-01-17T00:57:56.002Z,94505.88
2023-01-17T01:00:17.022Z,94507.88
2023-01-17T01:02:37.679Z,94513.53
2023-01-17T01:04:58.165Z,94509.78
2023-01-17T01:07:19.867Z,94514.44
2023-01-17T01:09:40.108Z,94510.81
2023-01-17T01:12:00.426Z,94515.41
2023-01-17T01:14:21.444Z,94514.28
2023-01-17T01:16:41.573Z,94515.75
2023-01-17T01:19:01.870Z,94519.47
2023-01-17T01:21:22.390Z,94526.91
2023-01-17T01:23:43.779Z,94529.91
2023-01-17T01:26:03.991Z,94536.13
2023-01-17T01:28:25.597Z,94542.56
2023-01-17T01:30:45.488Z,94541.28
2023-01-17T01:33:05.708Z,94545.06
2023-01-17T01:35:08.867Z,94550.03
2023-01-17T01:37:11.512Z,94555.03
2023-01-17T01:39:15.479Z,94541.41
2023-01-17T01:41:18.668Z,94557.72
2023-01-17T01:43:23.199Z,94550.56
2023-01-17T01:45:28.560Z,94555.00
2023-01-17T01:47:38.575Z,94555.56
2023-01-17T01:49:41.420Z,94561.13
2023-01-17T01:51:51.320Z,94560.28
2023-01-17T01:53:59.772Z,94563.78
2023-01-17T01:56:06.543Z,94559.63
2023-01-17T01:58:14.112Z,94557.88
2023-01-17T02:00:19.033Z,94555.47
2023-01-17T02:02:21.752Z,94562.38
2023-01-17T02:04:25.425Z,94566.72
2023-01-17T02:06:35.027Z,94566.63
2023-01-17T02:08:37.751Z,94563.03
2023-01-17T02:10:43.947Z,94565.63
2023-01-17T02:12:48.742Z,94567.53
2023-01-17T02:14:51.640Z,94558.06
2023-01-17T02:17:11.247Z,94547.66
2023-01-17T02:19:41.640Z,94549.31
2023-01-17T02:21:52.259Z,94545.09
2023-01-17T02:24:24.511Z,94547.56
2023-01-17T02:26:48.855Z,94542.44
2023-01-17T02:29:10.747Z,94539.69
2023-01-17T02:31:18.783Z,94542.91
2023-01-17T02:33:30.244Z,94542.88
2023-01-17T02:35:40.634Z,94542.69
2023-01-17T02:37:51.481Z,94539.28
2023-01-17T02:40:00.361Z,94542.59
2023-01-17T02:42:07.299Z,94538.13
2023-01-17T02:44:11.115Z,94537.28
2023-01-17T02:46:15.087Z,94535.63
2023-01-17T02:48:23.950Z,94526.97
2023-01-17T02:50:32.526Z,94534.88
2023-01-17T02:53:04.093Z,94533.19
2023-01-17T02:55:17.062Z,94528.78
2023-01-17T02:57:38.055Z,94532.28
2023-01-17T02:59:47.529Z,94524.72
2023-01-17T03:02:03.360Z,94530.78
2023-01-17T03:04:13.281Z,94532.56
2023-01-17T03:06:19.656Z,94534.28
2023-01-17T03:08:22.678Z,94531.81
2023-01-17T03:10:25.427Z,94523.97
2023-01-17T03:12:29.698Z,94529.06
2023-01-17T03:14:35.220Z,94531.53
2023-01-17T03:16:38.027Z,94534.03
2023-01-17T03:18:41.998Z,94534.88
2023-01-17T03:20:44.662Z,94532.28
2023-01-17T03:22:47.232Z,94537.44
2023-01-17T03:24:49.816Z,94540.09
2023-01-17T03:26:52.461Z,94540.09
2023-01-17T03:28:55.044Z,94546.06
2023-01-17T03:30:57.685Z,94539.19
2023-01-17T03:33:00.358Z,94547.00
2023-01-17T03:35:04.435Z,94549.59
2023-01-17T03:37:07.284Z,94543.50
2023-01-17T03:39:10.115Z,94547.84
2023-01-17T03:41:12.894Z,94547.66
2023-01-17T03:43:15.451Z,94548.66
2023-01-17T03:45:18.145Z,94539.09
2023-01-17T03:47:20.768Z,94544.25
2023-01-17T03:49:23.539Z,94538.28
2023-01-17T03:51:27.572Z,94536.53
2023-01-17T03:53:30.156Z,94543.50
2023-01-17T03:55:32.775Z,94538.19
2023-01-17T03:57:35.422Z,94539.94
2023-01-17T03:59:38.007Z,94533.03
2023-01-17T04:01:40.769Z,94533.78
2023-01-17T04:03:43.415Z,94534.59
2023-01-17T04:05:45.973Z,94539.75
2023-01-17T04:07:51.514Z,94541.25
2023-01-17T04:09:54.629Z,94542.34
2023-01-17T04:11:57.194Z,94533.78
2023-01-17T04:13:59.773Z,94534.69
2023-01-17T04:16:02.409Z,94534.78
2023-01-17T04:18:06.162Z,94538.19
2023-01-17T04:20:16.371Z,94536.44
2023-01-17T04:22:18.953Z,94525.31
2023-01-17T04:24:22.863Z,94528.47
2023-01-17T04:26:25.461Z,94536.38
2023-01-17T04:28:28.058Z,94538.13
2023-01-17T04:30:31.962Z,94539.75
2023-01-17T04:32:34.622Z,94542.78
2023-01-17T04:34:37.244Z,94543.94
2023-01-17T04:36:42.584Z,94549.00
2023-01-17T04:38:45.258Z,94551.91
2023-01-17T04:40:49.593Z,94549.41
2023-01-17T04:42:55.201Z,94551.66
2023-01-17T04:44:57.834Z,94550.81
2023-01-17T04:47:02.022Z,94552.75
2023-01-17T04:49:04.691Z,94546.81
2023-01-17T04:51:07.534Z,94551.91
2023-01-17T04:53:10.155Z,94548.50
2023-01-17T04:55:12.793Z,94549.25
2023-01-17T04:57:17.082Z,94544.84
2023-01-17T04:59:19.667Z,94542.25
2023-01-17T05:01:22.436Z,94543.25
2023-01-17T05:03:25.145Z,94546.59
2023-01-17T05:05:27.785Z,94546.03
2023-01-17T05:07:30.460Z,94552.75
2023-01-17T05:09:35.788Z,94551.91
2023-01-17T05:11:38.635Z,94545.84
2023-01-17T05:13:42.669Z,94557.00
2023-01-17T05:15:45.730Z,94553.66
2023-01-17T05:17:48.304Z,94543.59
2023-01-17T05:19:51.741Z,94547.75
2023-01-17T05:21:55.526Z,94544.34
2023-01-17T05:23:58.130Z,94550.41
2023-01-17T05:26:00.738Z,94540.09
2023-01-17T05:28:04.058Z,94544.34
2023-01-17T05:30:09.154Z,94546.03
2023-01-17T05:32:11.740Z,94543.66
2023-01-17T05:34:14.356Z,94534.88
2023-01-17T05:36:16.959Z,94531.38
2023-01-17T05:38:19.621Z,94539.94
2023-01-17T05:40:25.928Z,94542.34
2023-01-17T05:42:28.586Z,94537.19
2023-01-17T05:44:31.196Z,94539.00
2023-01-17T05:46:35.175Z,94533.19
2023-01-17T05:48:37.741Z,94545.44
2023-01-17T05:50:40.349Z,94538.59
2023-01-17T05:52:43.249Z,94529.22
2023-01-17T05:54:45.792Z,94520.56
2023-01-17T05:56:48.363Z,94515.41
2023-01-17T05:58:51.030Z,94503.38
2023-01-17T06:00:54.362Z,94497.28
2023-01-17T06:02:59.563Z,94492.97
2023-01-17T06:05:03.529Z,94484.47
2023-01-17T06:07:06.210Z,94486.22
2023-01-17T06:09:08.959Z,94490.72
2023-01-17T06:11:11.618Z,94492.56
2023-01-17T06:13:20.837Z,94486.47
2023-01-17T06:15:23.434Z,94491.72
2023-01-17T06:17:26.008Z,94491.63
2023-01-17T06:19:29.994Z,94483.16
2023-01-17T06:21:34.608Z,94488.06
2023-01-17T06:23:37.228Z,94492.69
2023-01-17T06:25:41.177Z,94482.84
2023-01-17T06:27:43.752Z,94490.31
2023-01-17T06:29:46.400Z,94487.16
2023-01-17T06:31:48.999Z,94490.88
2023-01-17T06:33:51.574Z,94497.94
2023-01-17T06:35:55.501Z,94500.63
2023-01-17T06:37:59.788Z,94498.03
2023-01-17T06:40:02.385Z,94497.19
2023-01-17T06:42:05.011Z,94504.03
2023-01-17T06:44:07.929Z,94493.81
2023-01-17T06:46:10.541Z,94488.75
2023-01-17T06:48:13.200Z,94491.41
2023-01-17T06:50:16.937Z,94494.78
2023-01-17T06:52:20.916Z,94497.38
2023-01-17T06:54:23.558Z,94498.22
2023-01-17T06:56:26.129Z,94497.53
2023-01-17T06:58:28.789Z,94502.59
2023-01-17T07:00:34.876Z,94494.88
2023-01-17T07:02:37.589Z,94488.16
2023-01-17T07:04:40.188Z,94489.72
2023-01-17T07:06:42.846Z,94477.59
2023-01-17T07:08:47.460Z,94470.78
2023-01-17T07:10:50.326Z,94469.97
2023-01-17T07:12:52.952Z,94463.88
2023-01-17T07:14:55.528Z,94467.38
2023-01-17T07:16:58.612Z,94464.81
2023-01-17T07:19:01.180Z,94466.63
2023-01-17T07:21:03.769Z,94464.22
2023-01-17T07:23:07.143Z,94459.31
2023-01-17T07:25:11.327Z,94450.91
2023-01-17T07:27:13.942Z,94444.03
2023-01-17T07:29:16.767Z,94443.44
2023-01-17T07:31:19.377Z,94435.88
2023-01-17T07:33:22.465Z,94427.41
2023-01-17T07:35:26.669Z,94426.56
2023-01-17T07:37:29.393Z,94428.47
2023-01-17T07:39:31.979Z,94426.91
2023-01-17T07:41:41.185Z,94428.75
2023-01-17T07:43:43.849Z,94435.63
2023-01-17T07:45:50.486Z,94438.28
2023-01-17T07:47:53.044Z,94447.75
2023-01-17T07:49:55.822Z,94446.25
2023-01-17T07:51:59.254Z,94452.47
2023-01-17T07:54:01.815Z,94451.63
2023-01-17T07:56:06.405Z,94460.59
2023-01-17T07:58:11.290Z,94461.63
2023-01-17T08:00:14.799Z,94465.25
2023-01-17T08:02:18.992Z,94459.25
2023-01-17T08:04:21.662Z,94462.50
2023-01-17T08:06:26.450Z,94462.47
2023-01-17T08:08:29.565Z,94457.22
2023-01-17T08:10:32.188Z,94464.78
2023-01-17T08:12:35.982Z,94449.06
2023-01-17T08:14:39.937Z,94451.50
2023-01-17T08:16:42.591Z,94446.19
2023-01-17T08:18:45.245Z,94440.94
2023-01-17T08:20:47.818Z,94437.38
2023-01-17T08:22:53.554Z,94437.22
2023-01-17T08:24:56.139Z,94439.53
2023-01-17T08:26:58.756Z,94440.97
2023-01-17T08:29:02.225Z,94442.69
2023-01-17T08:31:10.959Z,94445.19
2023-01-17T08:33:13.559Z,94443.44
2023-01-17T08:35:16.177Z,94446.88
2023-01-17T08:37:18.844Z,94448.50
2023-01-17T08:39:21.781Z,94450.09
2023-01-17T08:41:27.202Z,94451.75
2023-01-17T08:43:29.800Z,94449.00
2023-01-17T08:45:32.381Z,94448.91
2023-01-17T08:47:36.604Z,94448.69
2023-01-17T08:49:39.368Z,94442.59
2023-01-17T08:51:41.992Z,94431.88
2023-01-17T08:53:44.556Z,94438.59
2023-01-17T08:55:47.126Z,94431.63
2023-01-17T08:57:49.688Z,94432.19
2023-01-17T08:59:52.292Z,94427.88
2023-01-17T09:01:58.177Z,94409.75
2023-01-17T09:04:03.268Z,94412.97
2023-01-17T09:06:07.465Z,94413.66
2023-01-17T09:08:10.045Z,94417.97
2023-01-17T09:10:12.781Z,94411.91
2023-01-17T09:12:15.467Z,94405.81
2023-01-17T09:14:18.033Z,94409.91
2023-01-17T09:16:20.747Z,94401.41
2023-01-17T09:18:23.355Z,94391.00
2023-01-17T09:20:30.102Z,94395.25
2023-01-17T09:22:33.624Z,94378.88
2023-01-17T09:24:36.159Z,94382.09
2023-01-17T09:26:38.849Z,94374.47
2023-01-17T09:28:42.676Z,94376.94
2023-01-17T09:30:45.372Z,94370.94
2023-01-17T09:32:53.148Z,94374.28
2023-01-17T09:34:57.842Z,94371.69
2023-01-17T09:37:01.763Z,94366.34
2023-01-17T09:39:05.040Z,94361.19
2023-01-17T09:41:27.552Z,94360.31
2023-01-17T09:43:40.778Z,94361.09
2023-01-17T09:45:43.513Z,94353.03
2023-01-17T09:47:51.092Z,94366.75
2023-01-17T09:49:57.359Z,94364.91
2023-01-17T09:52:01.927Z,94365.31
2023-01-17T09:54:05.258Z,94368.63
2023-01-17T09:56:13.246Z,94371.28
2023-01-17T09:58:21.425Z,94362.63
2023-01-17T10:00:36.769Z,94363.28
2023-01-17T10:02:55.238Z,94372.56
2023-01-17T10:05:17.931Z,94359.50
2023-01-17T10:07:34.242Z,94356.75
2023-01-17T10:09:54.081Z,94345.50
2023-01-17T10:12:10.250Z,94348.91
2023-01-17T10:14:35.269Z,94356.38
2023-01-17T10:16:47.163Z,94351.13
2023-01-17T10:19:14.609Z,94356.28
2023-01-17T10:21:25.802Z,94362.19
2023-01-17T10:23:55.414Z,94358.59
2023-01-17T10:26:01.434Z,94350.22
2023-01-17T10:28:09.865Z,94342.63
2023-01-17T10:30:18.332Z,94347.72
2023-01-17T10:32:25.079Z,94342.38
2023-01-17T10:34:33.909Z,94332.06
2023-01-17T10:36:41.149Z,94333.72
2023-01-17T10:38:49.117Z,94333.59
2023-01-17T10:40:57.653Z,94337.47
2023-01-17T10:43:05.840Z,94335.00
2023-01-17T10:45:17.266Z,94335.72
2023-01-17T10:47:22.488Z,94333.25
2023-01-17T10:49:27.160Z,94331.31
2023-01-17T10:51:59.746Z,94332.50
2023-01-17T10:54:17.805Z,94339.31
2023-01-17T10:56:26.718Z,94330.47
2023-01-17T10:58:29.323Z,94330.38
2023-01-17T11:00:44.985Z,94334.09
2023-01-17T11:02:50.590Z,94327.06
2023-01-17T11:04:55.406Z,94309.94
2023-01-17T11:07:12.175Z,94311.66
2023-01-17T11:09:17.075Z,94312.50
2023-01-17T11:11:21.322Z,94311.66
2023-01-17T11:13:29.060Z,94296.94
2023-01-17T11:15:33.876Z,94290.03
2023-01-17T11:17:38.376Z,94289.63
2023-01-17T11:19:45.287Z,94287.88
2023-01-17T11:21:53.039Z,94286.88
2023-01-17T11:23:57.428Z,94286.56
2023-01-17T11:26:04.656Z,94289.91
2023-01-17T11:28:18.863Z,94281.94
2023-01-17T11:30:23.898Z,94281.84
2023-01-17T11:32:31.124Z,94274.00
2023-01-17T11:34:33.742Z,94269.47
2023-01-17T11:36:36.331Z,94262.78
2023-01-17T11:38:38.877Z,94257.31
2023-01-17T11:40:43.229Z,94256.56
2023-01-17T11:42:47.118Z,94250.50
2023-01-17T11:44:50.437Z,94250.50
2023-01-17T11:47:19.045Z,94238.41
2023-01-17T11:49:26.371Z,94233.13
2023-01-17T11:51:31.277Z,94231.19
2023-01-17T11:53:37.338Z,94231.09
2023-01-17T11:55:40.629Z,94229.34
2023-01-17T11:57:43.801Z,94227.47
2023-01-17T11:59:48.893Z,94224.69
2023-01-17T12:02:04.064Z,94220.47
2023-01-17T12:04:20.850Z,94209.84
2023-01-17T12:06:36.471Z,94204.66
2023-01-17T12:09:03.080Z,94206.25
2023-01-17T12:11:14.729Z,94195.91
2023-01-17T12:13:48.196Z,94193.00
2023-01-17T12:16:23.099Z,94189.31
2023-01-17T12:18:37.074Z,94185.88
2023-01-17T12:20:48.761Z,94180.34
2023-01-17T12:23:19.084Z,94183.72
2023-01-17T12:25:29.202Z,94181.97
2023-01-17T12:27:43.611Z,94180.31
2023-01-17T12:30:03.366Z,94177.03
2023-01-17T12:32:26.145Z,94176.09
2023-01-17T12:34:34.311Z,94172.41
2023-01-17T12:36:44.491Z,94168.88
2023-01-17T12:38:49.163Z,94159.16
2023-01-17T12:40:57.702Z,94154.19
2023-01-17T12:43:06.754Z,94148.50
2023-01-17T12:45:14.505Z,94145.41
2023-01-17T12:47:20.986Z,94139.59
2023-01-17T12:49:38.094Z,94140.56
2023-01-17T12:51:44.202Z,94142.09
2023-01-17T12:53:56.726Z,94138.59
2023-01-17T12:56:04.781Z,94131.16
2023-01-17T12:58:14.947Z,94129.81
2023-01-17T13:00:23.052Z,94127.94
2023-01-17T13:02:34.221Z,94128.56
2023-01-17T13:04:57.297Z,94132.19
2023-01-17T13:07:10.932Z,94131.34
2023-01-17T13:09:19.963Z,94121.53
2023-01-17T13:11:29.415Z,94126.06
2023-01-17T13:13:34.481Z,94118.41
2023-01-17T13:15:40.819Z,94111.50
2023-01-17T13:17:49.331Z,94109.75
2023-01-17T13:19:58.753Z,94107.28
2023-01-17T13:22:04.329Z,94113.88
2023-01-17T13:24:26.729Z,94112.53
2023-01-17T13:26:39.257Z,94101.06
2023-01-17T13:28:54.880Z,94100.16
2023-01-17T13:31:21.547Z,94104.47
2023-01-17T13:33:36.460Z,94100.75
2023-01-17T13:35:43.548Z,94104.28
2023-01-17T13:38:21.773Z,94098.06
2023-01-17T13:40:35.122Z,94094.56
2023-01-17T13:42:53.521Z,94090.94
2023-01-17T13:44:57.873Z,94098.88
2023-01-17T13:47:04.085Z,94103.13
2023-01-17T13:54:08.548Z,94104.88
2023-01-17T13:56:14.650Z,94100.66
2023-01-17T13:58:30.035Z,94101.69
2023-01-17T14:00:59.993Z,94101.78
2023-01-17T14:03:02.689Z,94101.78
2023-01-17T14:05:13.341Z,94102.81
2023-01-17T14:07:26.775Z,94108.94
2023-01-17T14:09:41.045Z,94109.03
2023-01-17T14:11:57.596Z,94100.44
2023-01-17T14:14:15.900Z,94103.13
2023-01-17T14:16:27.945Z,94099.72
2023-01-17T14:18:34.455Z,94095.72
2023-01-17T14:20:52.105Z,94099.19
2023-01-17T14:22:57.561Z,94097.66
2023-01-17T14:25:09.799Z,94094.25
2023-01-17T14:27:22.873Z,94091.88
2023-01-17T14:29:49.241Z,94093.94
2023-01-17T14:32:01.653Z,94099.13
2023-01-17T14:34:13.435Z,94103.22
2023-01-17T14:36:25.005Z,94098.59
2023-01-17T14:38:29.530Z,94094.44
2023-01-17T14:40:36.598Z,94099.63
2023-01-17T14:42:39.393Z,94095.47
2023-01-17T14:44:45.694Z,94095.41
2023-01-17T14:46:49.927Z,94094.25
2023-01-17T14:48:53.911Z,94100.94
2023-01-17T14:50:59.990Z,94092.78
2023-01-17T14:53:17.151Z,94093.41
2023-01-17T14:55:21.514Z,94099.59
2023-01-17T14:57:29.120Z,94098.69
2023-01-17T14:59:31.750Z,94092.06
2023-01-17T15:01:36.226Z,94089.47
2023-01-17T15:03:45.778Z,94093.81
2023-01-17T15:05:50.965Z,94096.50
2023-01-17T15:07:56.190Z,94084.53
2023-01-17T15:09:59.002Z,94084.75
2023-01-17T15:12:02.921Z,94088.00
2023-01-17T15:14:07.794Z,94083.38
2023-01-17T15:16:20.306Z,94079.22
2023-01-17T15:18:29.397Z,94080.91
2023-01-17T15:20:32.070Z,94077.47
2023-01-17T15:22:34.862Z,94083.47
2023-01-17T15:24:44.485Z,94085.13
2023-01-17T15:26:48.165Z,94083.28
2023-01-17T15:28:51.815Z,94087.50
2023-01-17T15:31:05.726Z,94086.69
2023-01-17T15:33:17.083Z,94085.97
2023-01-17T15:35:20.938Z,94092.88
2023-01-17T15:37:28.242Z,94098.03
2023-01-17T15:39:32.931Z,94092.13
2023-01-17T15:41:38.435Z,94098.97
2023-01-17T15:43:42.681Z,94101.66
2023-01-17T15:45:55.349Z,94101.56
2023-01-17T15:48:19.719Z,94103.41
2023-01-17T15:50:30.975Z,94105.03
2023-01-17T15:52:33.520Z,94111.03
2023-01-17T15:54:43.270Z,94115.38
2023-01-17T15:56:45.806Z,94114.63
2023-01-17T15:58:50.224Z,94111.03
2023-01-17T16:00:52.928Z,94112.69
2023-01-17T16:02:57.068Z,94121.38
2023-01-17T16:05:03.052Z,94110.22
2023-01-17T16:07:12.360Z,94113.72
2023-01-17T16:09:22.515Z,94122.19
2023-01-17T16:11:25.069Z,94114.47
2023-01-17T16:13:27.661Z,94124.16
2023-01-17T16:15:30.630Z,94122.19
2023-01-17T16:17:33.237Z,94119.22
2023-01-17T16:19:36.358Z,94122.09
2023-01-17T16:21:40.690Z,94121.78
2023-01-17T16:23:43.391Z,94120.53
2023-01-17T16:25:46.201Z,94122.00
2023-01-17T16:27:49.651Z,94121.59
2023-01-17T16:29:52.414Z,94119.41
2023-01-17T16:31:54.984Z,94121.47
2023-01-17T16:33:57.630Z,94126.78
2023-01-17T16:36:00.253Z,94125.16
2023-01-17T16:38:07.021Z,94129.03
2023-01-17T16:40:10.935Z,94134.59
2023-01-17T16:42:13.782Z,94133.38
2023-01-17T16:44:17.046Z,94138.00
2023-01-17T16:46:21.492Z,94137.38
2023-01-17T16:48:24.116Z,94139.41
2023-01-17T16:50:26.811Z,94140.44
2023-01-17T16:52:29.463Z,94143.84
2023-01-17T16:54:33.346Z,94140.78
2023-01-17T16:56:35.896Z,94142.72
2023-01-17T16:58:38.580Z,94146.34
2023-01-17T17:00:41.312Z,94143.03
2023-01-17T17:02:44.108Z,94148.38
2023-01-17T17:04:46.881Z,94140.09
2023-01-17T17:06:49.423Z,94144.69
2023-01-17T17:08:52.007Z,94146.72
2023-01-17T17:10:56.106Z,94145.25
2023-01-17T17:13:00.475Z,94143.84
2023-01-17T17:15:05.450Z,94144.88
2023-01-17T17:17:08.117Z,94144.25
2023-01-17T17:19:11.348Z,94150.19
2023-01-17T17:21:14.606Z,94151.97
2023-01-17T17:23:17.150Z,94148.75
2023-01-17T17:25:20.220Z,94151.47
2023-01-17T17:27:26.537Z,94157.38
2023-01-17T17:29:29.090Z,94149.84
2023-01-17T17:31:31.772Z,94144.97
2023-01-17T17:33:34.925Z,94156.91
2023-01-17T17:35:37.491Z,94157.09
2023-01-17T17:37:40.010Z,94155.50
2023-01-17T17:39:42.619Z,94156.44
2023-01-17T17:41:46.462Z,94168.38
2023-01-17T17:43:51.322Z,94178.69
2023-01-17T17:45:53.942Z,94174.38
2023-01-17T17:47:56.631Z,94179.72
2023-01-17T17:49:59.198Z,94180.47
2023-01-17T17:52:04.825Z,94185.59
2023-01-17T17:54:10.001Z,94182.28
2023-01-17T17:56:12.626Z,94183.19
2023-01-17T17:58:15.281Z,94180.63
2023-01-17T18:00:21.070Z,94183.19
2023-01-17T18:02:23.706Z,94184.31
2023-01-17T18:04:26.905Z,94181.78
2023-01-17T18:06:29.549Z,94185.38
2023-01-17T18:08:32.633Z,94184.56
2023-01-17T18:10:35.192Z,94188.94
2023-01-17T18:12:37.733Z,94183.91
2023-01-17T18:14:40.286Z,94190.81
2023-01-17T18:16:45.303Z,94188.47
2023-01-17T18:18:50.944Z,94202.00
2023-01-17T18:20:53.566Z,94199.63
2023-01-17T18:22:56.135Z,94204.69
2023-01-17T18:24:58.737Z,94199.72
2023-01-17T18:27:01.303Z,94203.03
2023-01-17T18:29:05.457Z,94200.38
2023-01-17T18:31:08.329Z,94200.47
2023-01-17T18:33:13.065Z,94200.50
2023-01-17T18:35:15.674Z,94198.78
2023-01-17T18:37:18.253Z,94197.22
2023-01-17T18:39:24.341Z,94197.31
2023-01-17T18:41:28.890Z,94197.22
2023-01-17T18:43:31.487Z,94195.66
2023-01-17T18:45:34.049Z,94204.19
2023-01-17T18:47:38.716Z,94201.72
2023-01-17T18:49:42.824Z,94201.06
2023-01-17T18:51:47.561Z,94200.97
2023-01-17T18:53:50.449Z,94202.81
2023-01-17T18:55:56.884Z,94197.66
2023-01-17T18:57:59.683Z,94197.00
2023-01-17T19:00:02.230Z,94190.19
2023-01-17T19:02:04.855Z,94202.13
2023-01-17T19:04:07.437Z,94199.66
2023-01-17T19:06:14.526Z,94202.97
2023-01-17T19:08:17.429Z,94205.56
2023-01-17T19:10:20.367Z,94203.72
2023-01-17T19:12:22.898Z,94205.56
2023-01-17T19:14:25.438Z,94209.78
2023-01-17T19:16:30.511Z,94212.44
2023-01-17T19:18:33.544Z,94212.44
2023-01-17T19:20:36.413Z,94211.78
2023-01-17T19:22:41.292Z,94208.53
2023-01-17T19:24:43.908Z,94214.53
2023-01-17T19:26:47.700Z,94215.28
2023-01-17T19:28:51.635Z,94217.00
2023-01-17T19:31:02.492Z,94228.97
2023-01-17T19:33:05.153Z,94220.50
2023-01-17T19:35:09.039Z,94222.25
2023-01-17T19:37:11.621Z,94223.75
2023-01-17T19:39:15.546Z,94223.00
2023-01-17T19:41:20.172Z,94216.09
2023-01-17T19:43:23.350Z,94221.97
2023-01-17T19:45:26.024Z,94217.75
2023-01-17T19:47:28.619Z,94215.19
2023-01-17T19:49:32.084Z,94220.25
2023-01-17T19:51:34.733Z,94220.25
2023-01-17T19:53:38.118Z,94216.19
2023-01-17T19:55:42.091Z,94218.84
2023-01-17T19:57:44.660Z,94222.25
2023-01-17T19:59:47.986Z,94217.09
2023-01-17T20:01:50.776Z,94212.84
2023-01-17T20:03:54.953Z,94215.38
2023-01-17T20:05:58.633Z,94219.69
2023-01-17T20:08:02.021Z,94221.50
2023-01-17T20:10:05.081Z,94219.84
2023-01-17T20:12:10.706Z,94220.66
2023-01-17T20:14:16.621Z,94226.75
2023-01-17T20:16:19.320Z,94221.59
2023-01-17T20:18:22.457Z,94225.06
2023-01-17T20:20:25.062Z,94216.72
2023-01-17T20:22:27.644Z,94217.69
2023-01-17T20:24:30.245Z,94219.44
2023-01-17T20:26:37.282Z,94221.03
2023-01-17T20:28:42.958Z,94214.84
2023-01-17T20:30:45.576Z,94210.56
2023-01-17T20:32:48.165Z,94217.63
2023-01-17T20:34:51.341Z,94212.56
2023-01-17T20:36:57.430Z,94205.69
2023-01-17T20:39:00.916Z,94205.00
2023-01-17T20:41:03.581Z,94198.94
2023-01-17T20:43:06.192Z,94193.78
2023-01-17T20:45:11.038Z,94192.97
2023-01-17T20:47:13.600Z,94190.47
2023-01-17T20:49:19.256Z,94190.47
2023-01-17T20:51:23.135Z,94192.16
2023-01-17T20:53:25.755Z,94186.16
2023-01-17T20:55:28.311Z,94187.09
2023-01-17T20:57:32.476Z,94181.94
2023-01-17T20:59:35.032Z,94179.28
2023-01-17T21:01:39.572Z,94188.00
2023-01-17T21:03:42.328Z,94206.00
2023-01-17T21:05:44.863Z,94215.13
2023-01-17T21:07:47.406Z,94215.13
2023-01-17T21:09:50.007Z,94213.38
2023-01-17T21:11:54.321Z,94209.22
2023-01-17T21:13:57.337Z,94217.31
2023-01-17T21:16:00.207Z,94221.44
2023-01-17T21:18:04.281Z,94209.50
2023-01-17T21:20:08.028Z,94223.19
2023-01-17T21:22:11.210Z,94214.66
2023-01-17T21:24:18.337Z,94217.22
2023-01-17T21:26:22.474Z,94216.13
2023-01-17T21:28:26.386Z,94212.81
2023-01-17T21:30:29.091Z,94215.53
2023-01-17T21:32:31.729Z,94214.47
2023-01-17T21:34:35.974Z,94218.88
2023-01-17T21:36:40.198Z,94217.31
2023-01-17T21:38:42.792Z,94215.53
2023-01-17T21:40:45.881Z,94215.47
2023-01-17T21:42:48.462Z,94220.69
2023-01-17T21:44:51.058Z,94218.19
2023-01-17T21:46:56.350Z,94217.41
2023-01-17T21:48:59.130Z,94211.41
2023-01-17T21:51:06.474Z,94211.31
2023-01-17T21:53:10.043Z,94214.72
2023-01-17T21:55:30.201Z,94215.63
2023-01-17T21:57:50.432Z,94216.56
2023-01-17T21:59:53.015Z,94215.63
2023-01-17T22:01:55.644Z,94213.81
2023-01-17T22:03:59.854Z,94213.16
2023-01-17T22:06:02.474Z,94217.44
2023-01-17T22:08:12.728Z,94222.53
2023-01-17T22:10:15.518Z,94219.22
2023-01-17T22:12:18.041Z,94215.81
2023-01-17T22:14:20.882Z,94223.53
2023-01-17T22:16:25.300Z,94215.91
2023-01-17T22:18:28.727Z,94215.91
2023-01-17T22:20:31.293Z,94221.13
2023-01-17T22:22:34.206Z,94218.72
2023-01-17T22:24:38.143Z,94215.22
2023-01-17T22:26:42.861Z,94214.38
2023-01-17T22:28:45.935Z,94210.91
2023-01-17T22:30:48.535Z,94210.91
2023-01-17T22:32:51.227Z,94204.94
2023-01-17T22:34:53.807Z,94216.06
2023-01-17T22:36:56.358Z,94218.56
2023-01-17T22:38:59.139Z,94218.38
2023-01-17T22:41:07.775Z,94221.88
2023-01-17T22:43:10.913Z,94217.63
2023-01-17T22:45:14.112Z,94212.47
2023-01-17T22:47:16.678Z,94215.97
2023-01-17T22:49:23.245Z,94223.78
2023-01-17T22:51:28.599Z,94220.47
2023-01-17T22:53:31.697Z,94227.25
2023-01-17T22:55:34.252Z,94229.81
2023-01-17T22:57:38.389Z,94229.16
2023-01-17T22:59:40.982Z,94224.03
2023-01-17T23:01:43.521Z,94222.53
2023-01-17T23:03:47.214Z,94214.75
2023-01-17T23:05:49.851Z,94216.56
2023-01-17T23:07:52.438Z,94218.22
2023-01-17T23:09:55.005Z,94216.56
2023-01-17T23:11:56.681Z,94219.03
2023-01-17T23:14:00.452Z,94210.50
2023-01-17T23:16:23.307Z,94213.06
2023-01-17T23:18:43.234Z,94215.56
2023-01-17T23:20:45.871Z,94219.81
2023-01-17T23:22:48.441Z,94215.56
2023-01-17T23:24:52.775Z,94216.38
2023-01-17T23:27:09.236Z,94219.03
2023-01-17T23:29:13.147Z,94213.06
2023-01-17T23:31:15.710Z,94217.41
2023-01-17T23:33:19.355Z,94216.56
2023-01-17T23:35:23.318Z,94216.56
2023-01-17T23:37:50.903Z,94219.13
2023-01-17T23:39:53.489Z,94219.72
2023-01-17T23:42:13.762Z,94218.06
2023-01-17T23:44:17.713Z,94217.31
2023-01-17T23:46:20.607Z,94219.03
2023-01-17T23:48:25.706Z,94214.84
2023-01-17T23:50:28.294Z,94217.88
2023-01-17T23:52:30.830Z,94220.28
2023-01-17T23:54:35.088Z,94223.78
2023-01-17T23:56:37.796Z,94217.88
2023-01-17T23:58:40.455Z,94214.56
